KWVI/WVI METAR and TAF weather

Enter ICAO airport designator
Station Type Date Time Source
KWVI METAR 2021/06/24 05:39 UTC NOAA

KWVI 240539Z AUTO 00000KT 10SM BKN018 15/12 A3002 RMK AO2 T01500122


Station Type Date Time Source
KWVI Decoded METAR 2021/06/24 05:39 UTC NOAA

WATSONVILLE MUNICIPAL AIRPORT , CA, United States (KWVI) 36-56N 121-47W 43M
Jun 24, 2021 - 01:39 AM EDT / 2021.06.24 0539 UTC
Wind: Calm:0
Visibility: 10 mile(s):0
Sky conditions: mostly cloudy
Temperature: 59.0 F (15.0 C)
Dew Point: 54.0 F (12.2 C)
Relative Humidity: 83%
Pressure (altimeter): 30.02 in. Hg (1016 hPa)
ob: KWVI 240539Z AUTO 00000KT 10SM BKN018 15/12 A3002 RMK AO2 T01500122
cycle: 5

Station Type Date Time Source
KWVI TAF UTC NOAA

Error!

Example: see airport list